Buckingham, Kentucky
Current Conditions -  °F | °C
As of 8:35 AM on Sunday 23 Nov 2014 (Local Time) from KPBX Reporting Station
Clear Clear  
Wind Chill: 53°   Ceiling: Unl
Heat Index: 53°   Visibility: 10mi
Dew Point: 38°   Wind: 3mph
Humidity: 58%   Direction: 160°SSE
Pressure: 30.04"   Gusts: NA
Location:  37.391°N, 82.728°W
Report Text: KPBX 231335Z AUTO 16003KT 10SM CLR 12/04 A3004 RMK AO2 T01150036
Loading
Personal Weather Stations






























Interactive Weather Map New forecast layout! Learn more

10-Day Weather Forecast

Advertisements
Track Severe Weather on mobile